sensor_id;sensor_type;location;lat;lon;timestamp;temperature;humidity
53254;DHT22;39148;53.332;6.922;2022-07-29T00:02:10;19.40;75.20
53254;DHT22;39148;53.332;6.922;2022-07-29T00:04:36;19.40;75.10
53254;DHT22;39148;53.332;6.922;2022-07-29T00:07:03;19.30;75.00
53254;DHT22;39148;53.332;6.922;2022-07-29T00:09:29;19.30;75.10
53254;DHT22;39148;53.332;6.922;2022-07-29T00:11:57;19.30;75.10
53254;DHT22;39148;53.332;6.922;2022-07-29T00:14:23;19.30;75.30
53254;DHT22;39148;53.332;6.922;2022-07-29T00:16:49;19.30;75.10
53254;DHT22;39148;53.332;6.922;2022-07-29T00:19:15;19.30;75.10
53254;DHT22;39148;53.332;6.922;2022-07-29T00:21:41;19.30;75.30
53254;DHT22;39148;53.332;6.922;2022-07-29T00:24:06;19.30;75.30
53254;DHT22;39148;53.332;6.922;2022-07-29T00:26:32;19.20;75.20
53254;DHT22;39148;53.332;6.922;2022-07-29T00:28:59;19.20;75.30
53254;DHT22;39148;53.332;6.922;2022-07-29T00:31:25;19.20;75.50
53254;DHT22;39148;53.332;6.922;2022-07-29T00:33:51;19.10;75.40
53254;DHT22;39148;53.332;6.922;2022-07-29T00:36:17;19.20;75.40
53254;DHT22;39148;53.332;6.922;2022-07-29T00:38:42;19.20;75.40
53254;DHT22;39148;53.332;6.922;2022-07-29T00:41:11;19.20;75.40
53254;DHT22;39148;53.332;6.922;2022-07-29T00:43:37;19.20;75.60
53254;DHT22;39148;53.332;6.922;2022-07-29T00:46:03;19.10;75.40
53254;DHT22;39148;53.332;6.922;2022-07-29T00:48:28;19.10;75.30
53254;DHT22;39148;53.332;6.922;2022-07-29T00:50:56;19.00;75.40
53254;DHT22;39148;53.332;6.922;2022-07-29T00:53:23;19.20;75.70
53254;DHT22;39148;53.332;6.922;2022-07-29T00:55:50;19.00;75.60
53254;DHT22;39148;53.332;6.922;2022-07-29T00:58:16;19.10;75.60
53254;DHT22;39148;53.332;6.922;2022-07-29T01:00:42;19.10;75.60
53254;DHT22;39148;53.332;6.922;2022-07-29T01:03:08;19.10;75.60
53254;DHT22;39148;53.332;6.922;2022-07-29T01:05:34;19.00;75.60
53254;DHT22;39148;53.332;6.922;2022-07-29T01:08:01;19.00;75.70
53254;DHT22;39148;53.332;6.922;2022-07-29T01:10:28;19.10;75.70
53254;DHT22;39148;53.332;6.922;2022-07-29T01:12:57;19.00;75.80
53254;DHT22;39148;53.332;6.922;2022-07-29T01:15:24;19.10;75.90
53254;DHT22;39148;53.332;6.922;2022-07-29T01:17:57;19.00;75.70
53254;DHT22;39148;53.332;6.922;2022-07-29T01:26:49;18.90;74.80
53254;DHT22;39148;53.332;6.922;2022-07-29T01:29:32;19.00;75.10
53254;DHT22;39148;53.332;6.922;2022-07-29T01:32:03;19.00;75.00
53254;DHT22;39148;53.332;6.922;2022-07-29T01:34:44;19.00;76.30
53254;DHT22;39148;53.332;6.922;2022-07-29T01:37:21;18.90;74.80
53254;DHT22;39148;53.332;6.922;2022-07-29T01:39:49;19.00;76.20
53254;DHT22;39148;53.332;6.922;2022-07-29T01:42:34;19.00;76.10
53254;DHT22;39148;53.332;6.922;2022-07-29T01:45:20;19.00;76.40
53254;DHT22;39148;53.332;6.922;2022-07-29T01:50:37;18.90;76.10
53254;DHT22;39148;53.332;6.922;2022-07-29T01:53:09;18.90;74.90
53254;DHT22;39148;53.332;6.922;2022-07-29T01:55:39;18.80;76.10
53254;DHT22;39148;53.332;6.922;2022-07-29T01:58:06;18.80;76.10
53254;DHT22;39148;53.332;6.922;2022-07-29T02:00:34;18.80;76.00
53254;DHT22;39148;53.332;6.922;2022-07-29T02:03:05;18.90;76.20
53254;DHT22;39148;53.332;6.922;2022-07-29T02:05:33;18.90;76.20
53254;DHT22;39148;53.332;6.922;2022-07-29T02:08:00;18.80;76.10
53254;DHT22;39148;53.332;6.922;2022-07-29T02:10:29;18.80;76.20
53254;DHT22;39148;53.332;6.922;2022-07-29T02:12:57;18.90;76.30
53254;DHT22;39148;53.332;6.922;2022-07-29T02:15:25;18.70;76.20
53254;DHT22;39148;53.332;6.922;2022-07-29T02:17:59;18.80;76.30
53254;DHT22;39148;53.332;6.922;2022-07-29T02:20:26;18.80;76.40
53254;DHT22;39148;53.332;6.922;2022-07-29T02:22:54;19.00;76.40
53254;DHT22;39148;53.332;6.922;2022-07-29T02:25:22;18.80;76.30
53254;DHT22;39148;53.332;6.922;2022-07-29T02:27:50;18.70;76.20
53254;DHT22;39148;53.332;6.922;2022-07-29T02:30:17;18.70;76.30
53254;DHT22;39148;53.332;6.922;2022-07-29T02:32:44;18.80;76.40
53254;DHT22;39148;53.332;6.922;2022-07-29T02:35:12;18.70;76.30
53254;DHT22;39148;53.332;6.922;2022-07-29T02:37:39;18.80;76.40
53254;DHT22;39148;53.332;6.922;2022-07-29T02:40:09;18.80;76.50
53254;DHT22;39148;53.332;6.922;2022-07-29T02:42:37;18.80;76.20
53254;DHT22;39148;53.332;6.922;2022-07-29T02:45:05;18.70;76.40
53254;DHT22;39148;53.332;6.922;2022-07-29T02:47:36;18.70;76.10
53254;DHT22;39148;53.332;6.922;2022-07-29T02:50:17;18.70;76.50
53254;DHT22;39148;53.332;6.922;2022-07-29T02:58:01;18.70;76.60
53254;DHT22;39148;53.332;6.922;2022-07-29T03:00:29;18.70;76.70
53254;DHT22;39148;53.332;6.922;2022-07-29T03:02:59;18.50;76.40
53254;DHT22;39148;53.332;6.922;2022-07-29T03:05:26;18.60;76.60
53254;DHT22;39148;53.332;6.922;2022-07-29T03:07:58;18.60;76.80
53254;DHT22;39148;53.332;6.922;2022-07-29T03:10:26;18.60;76.60
53254;DHT22;39148;53.332;6.922;2022-07-29T03:12:54;18.60;76.50
53254;DHT22;39148;53.332;6.922;2022-07-29T03:15:20;18.50;76.50
53254;DHT22;39148;53.332;6.922;2022-07-29T03:17:47;18.60;76.50
53254;DHT22;39148;53.332;6.922;2022-07-29T03:20:13;18.60;76.50
53254;DHT22;39148;53.332;6.922;2022-07-29T03:22:43;18.60;76.50
53254;DHT22;39148;53.332;6.922;2022-07-29T03:25:13;18.50;76.70
53254;DHT22;39148;53.332;6.922;2022-07-29T03:27:40;18.60;76.70
53254;DHT22;39148;53.332;6.922;2022-07-29T03:30:06;18.60;76.60
53254;DHT22;39148;53.332;6.922;2022-07-29T03:32:32;18.60;76.40
53254;DHT22;39148;53.332;6.922;2022-07-29T03:34:58;18.50;76.50
53254;DHT22;39148;53.332;6.922;2022-07-29T03:37:24;18.60;76.60
53254;DHT22;39148;53.332;6.922;2022-07-29T03:39:51;18.60;76.60
53254;DHT22;39148;53.332;6.922;2022-07-29T03:42:19;18.60;76.70
53254;DHT22;39148;53.332;6.922;2022-07-29T03:44:48;18.50;76.70
53254;DHT22;39148;53.332;6.922;2022-07-29T03:47:15;18.50;76.80
53254;DHT22;39148;53.332;6.922;2022-07-29T03:49:42;18.60;76.80
53254;DHT22;39148;53.332;6.922;2022-07-29T03:52:09;18.50;76.70
53254;DHT22;39148;53.332;6.922;2022-07-29T03:54:37;18.50;76.70
53254;DHT22;39148;53.332;6.922;2022-07-29T03:57:04;18.50;76.70
53254;DHT22;39148;53.332;6.922;2022-07-29T03:59:32;18.50;76.80
53254;DHT22;39148;53.332;6.922;2022-07-29T04:02:01;18.50;76.80
53254;DHT22;39148;53.332;6.922;2022-07-29T04:04:28;18.50;76.80
53254;DHT22;39148;53.332;6.922;2022-07-29T04:06:53;18.50;76.80
53254;DHT22;39148;53.332;6.922;2022-07-29T04:09:19;18.50;76.70
53254;DHT22;39148;53.332;6.922;2022-07-29T04:11:45;18.40;76.70
53254;DHT22;39148;53.332;6.922;2022-07-29T04:14:11;18.40;76.80
53254;DHT22;39148;53.332;6.922;2022-07-29T04:16:36;18.40;76.70
53254;DHT22;39148;53.332;6.922;2022-07-29T04:19:02;18.50;76.70
53254;DHT22;39148;53.332;6.922;2022-07-29T04:21:28;18.50;76.70
53254;DHT22;39148;53.332;6.922;2022-07-29T04:23:53;18.40;76.70
53254;DHT22;39148;53.332;6.922;2022-07-29T04:26:20;18.40;76.70
53254;DHT22;39148;53.332;6.922;2022-07-29T04:28:46;18.40;76.90
53254;DHT22;39148;53.332;6.922;2022-07-29T04:31:12;18.40;76.80
53254;DHT22;39148;53.332;6.922;2022-07-29T04:33:39;18.30;77.20
53254;DHT22;39148;53.332;6.922;2022-07-29T04:36:05;18.40;76.80
53254;DHT22;39148;53.332;6.922;2022-07-29T04:38:31;18.40;76.80
53254;DHT22;39148;53.332;6.922;2022-07-29T04:40:56;18.50;76.80
53254;DHT22;39148;53.332;6.922;2022-07-29T04:43:22;18.40;76.80
53254;DHT22;39148;53.332;6.922;2022-07-29T04:45:48;18.40;77.00
53254;DHT22;39148;53.332;6.922;2022-07-29T04:48:13;18.40;77.00
53254;DHT22;39148;53.332;6.922;2022-07-29T04:50:39;18.30;76.90
53254;DHT22;39148;53.332;6.922;2022-07-29T04:53:06;18.40;77.00
53254;DHT22;39148;53.332;6.922;2022-07-29T04:55:32;18.40;77.10
53254;DHT22;39148;53.332;6.922;2022-07-29T04:57:58;18.40;77.10
53254;DHT22;39148;53.332;6.922;2022-07-29T05:00:23;18.30;77.00
53254;DHT22;39148;53.332;6.922;2022-07-29T05:02:49;18.40;77.00
53254;DHT22;39148;53.332;6.922;2022-07-29T05:05:15;18.40;77.00
53254;DHT22;39148;53.332;6.922;2022-07-29T05:07:41;18.30;77.00
53254;DHT22;39148;53.332;6.922;2022-07-29T05:10:07;18.30;77.10
53254;DHT22;39148;53.332;6.922;2022-07-29T05:12:33;18.30;76.80
53254;DHT22;39148;53.332;6.922;2022-07-29T05:14:58;18.30;77.00
53254;DHT22;39148;53.332;6.922;2022-07-29T05:17:24;18.30;77.40
53254;DHT22;39148;53.332;6.922;2022-07-29T05:19:50;18.40;77.10
53254;DHT22;39148;53.332;6.922;2022-07-29T05:22:18;18.30;77.00
53254;DHT22;39148;53.332;6.922;2022-07-29T05:24:44;18.30;77.60
53254;DHT22;39148;53.332;6.922;2022-07-29T05:27:09;18.30;77.00
53254;DHT22;39148;53.332;6.922;2022-07-29T05:29:35;18.30;77.00
53254;DHT22;39148;53.332;6.922;2022-07-29T05:32:02;18.20;77.00
53254;DHT22;39148;53.332;6.922;2022-07-29T05:34:28;18.30;77.00
53254;DHT22;39148;53.332;6.922;2022-07-29T05:36:54;18.30;77.00
53254;DHT22;39148;53.332;6.922;2022-07-29T05:39:19;18.30;77.00
53254;DHT22;39148;53.332;6.922;2022-07-29T05:41:45;18.30;77.10
53254;DHT22;39148;53.332;6.922;2022-07-29T05:44:11;18.20;77.00
53254;DHT22;39148;53.332;6.922;2022-07-29T05:46:38;18.40;77.20
53254;DHT22;39148;53.332;6.922;2022-07-29T05:49:04;18.30;77.20
53254;DHT22;39148;53.332;6.922;2022-07-29T05:51:32;18.20;77.10
53254;DHT22;39148;53.332;6.922;2022-07-29T05:53:59;18.20;77.30
53254;DHT22;39148;53.332;6.922;2022-07-29T05:56:25;18.10;77.20
53254;DHT22;39148;53.332;6.922;2022-07-29T05:58:51;18.30;77.20
53254;DHT22;39148;53.332;6.922;2022-07-29T06:01:17;18.20;77.20
53254;DHT22;39148;53.332;6.922;2022-07-29T06:03:42;18.20;77.20
53254;DHT22;39148;53.332;6.922;2022-07-29T06:06:08;18.30;77.20
53254;DHT22;39148;53.332;6.922;2022-07-29T06:08:34;18.20;77.30
53254;DHT22;39148;53.332;6.922;2022-07-29T06:11:01;18.30;77.40
53254;DHT22;39148;53.332;6.922;2022-07-29T06:13:27;18.30;77.30
53254;DHT22;39148;53.332;6.922;2022-07-29T06:15:53;18.30;77.30
53254;DHT22;39148;53.332;6.922;2022-07-29T06:18:19;18.30;77.40
53254;DHT22;39148;53.332;6.922;2022-07-29T06:20:46;18.20;77.30
53254;DHT22;39148;53.332;6.922;2022-07-29T06:23:12;18.20;77.30
53254;DHT22;39148;53.332;6.922;2022-07-29T06:25:40;18.40;77.40
53254;DHT22;39148;53.332;6.922;2022-07-29T06:28:06;18.30;77.50
53254;DHT22;39148;53.332;6.922;2022-07-29T06:30:32;18.10;77.30
53254;DHT22;39148;53.332;6.922;2022-07-29T06:32:57;18.20;77.00
53254;DHT22;39148;53.332;6.922;2022-07-29T06:35:23;18.20;77.30
53254;DHT22;39148;53.332;6.922;2022-07-29T06:37:49;18.30;77.30
53254;DHT22;39148;53.332;6.922;2022-07-29T06:40:15;18.20;77.30
53254;DHT22;39148;53.332;6.922;2022-07-29T06:42:58;18.20;76.40
53254;DHT22;39148;53.332;6.922;2022-07-29T06:45:24;18.30;77.30
53254;DHT22;39148;53.332;6.922;2022-07-29T06:47:50;18.20;77.20
53254;DHT22;39148;53.332;6.922;2022-07-29T06:50:16;18.20;77.30
53254;DHT22;39148;53.332;6.922;2022-07-29T06:52:41;18.30;77.20
53254;DHT22;39148;53.332;6.922;2022-07-29T06:55:08;18.20;77.20
53254;DHT22;39148;53.332;6.922;2022-07-29T06:57:34;18.20;77.00
53254;DHT22;39148;53.332;6.922;2022-07-29T07:00:00;18.30;77.30
53254;DHT22;39148;53.332;6.922;2022-07-29T07:02:26;18.30;77.30
53254;DHT22;39148;53.332;6.922;2022-07-29T07:04:52;18.30;77.20
53254;DHT22;39148;53.332;6.922;2022-07-29T07:07:17;18.30;77.30
53254;DHT22;39148;53.332;6.922;2022-07-29T07:09:43;18.30;77.20
53254;DHT22;39148;53.332;6.922;2022-07-29T07:12:09;18.30;77.20
53254;DHT22;39148;53.332;6.922;2022-07-29T07:14:35;18.20;77.10
53254;DHT22;39148;53.332;6.922;2022-07-29T07:17:00;18.30;77.10
53254;DHT22;39148;53.332;6.922;2022-07-29T07:19:28;18.40;77.30
53254;DHT22;39148;53.332;6.922;2022-07-29T07:21:54;18.30;77.10
53254;DHT22;39148;53.332;6.922;2022-07-29T07:24:19;18.40;77.30
53254;DHT22;39148;53.332;6.922;2022-07-29T07:26:45;18.30;77.10
53254;DHT22;39148;53.332;6.922;2022-07-29T07:29:11;18.30;77.00
53254;DHT22;39148;53.332;6.922;2022-07-29T07:31:37;18.30;77.10
53254;DHT22;39148;53.332;6.922;2022-07-29T07:34:03;18.40;77.10
53254;DHT22;39148;53.332;6.922;2022-07-29T07:36:29;18.40;77.10
53254;DHT22;39148;53.332;6.922;2022-07-29T07:38:55;18.40;77.20
53254;DHT22;39148;53.332;6.922;2022-07-29T07:41:21;18.20;77.00
53254;DHT22;39148;53.332;6.922;2022-07-29T07:43:47;18.40;77.10
53254;DHT22;39148;53.332;6.922;2022-07-29T07:46:13;18.40;77.10
53254;DHT22;39148;53.332;6.922;2022-07-29T07:48:39;18.40;77.00
53254;DHT22;39148;53.332;6.922;2022-07-29T07:51:04;18.30;77.00
53254;DHT22;39148;53.332;6.922;2022-07-29T07:53:30;18.30;77.00
53254;DHT22;39148;53.332;6.922;2022-07-29T07:55:56;18.40;77.10
53254;DHT22;39148;53.332;6.922;2022-07-29T07:58:21;18.40;77.00
53254;DHT22;39148;53.332;6.922;2022-07-29T08:00:47;18.50;77.00
53254;DHT22;39148;53.332;6.922;2022-07-29T08:03:13;18.40;77.00
53254;DHT22;39148;53.332;6.922;2022-07-29T08:05:40;18.50;76.90
53254;DHT22;39148;53.332;6.922;2022-07-29T08:08:06;18.50;77.00
53254;DHT22;39148;53.332;6.922;2022-07-29T08:10:32;18.50;77.00
53254;DHT22;39148;53.332;6.922;2022-07-29T08:13:16;18.50;77.00
53254;DHT22;39148;53.332;6.922;2022-07-29T08:15:42;18.60;76.90
53254;DHT22;39148;53.332;6.922;2022-07-29T08:18:10;18.50;76.80
53254;DHT22;39148;53.332;6.922;2022-07-29T08:20:36;18.30;76.70
53254;DHT22;39148;53.332;6.922;2022-07-29T08:23:04;18.60;76.80
53254;DHT22;39148;53.332;6.922;2022-07-29T08:25:32;18.50;76.80
53254;DHT22;39148;53.332;6.922;2022-07-29T08:27:58;18.60;76.90
53254;DHT22;39148;53.332;6.922;2022-07-29T08:30:24;18.60;76.80
53254;DHT22;39148;53.332;6.922;2022-07-29T08:32:50;18.60;76.70
53254;DHT22;39148;53.332;6.922;2022-07-29T08:35:19;18.60;76.80
53254;DHT22;39148;53.332;6.922;2022-07-29T08:37:45;18.60;76.80
53254;DHT22;39148;53.332;6.922;2022-07-29T08:40:11;18.70;76.80
53254;DHT22;39148;53.332;6.922;2022-07-29T08:42:37;18.60;76.60
53254;DHT22;39148;53.332;6.922;2022-07-29T08:45:04;18.60;76.60
53254;DHT22;39148;53.332;6.922;2022-07-29T08:47:30;18.70;76.30
53254;DHT22;39148;53.332;6.922;2022-07-29T08:49:56;18.80;76.60
53254;DHT22;39148;53.332;6.922;2022-07-29T08:52:25;18.80;76.60
53254;DHT22;39148;53.332;6.922;2022-07-29T08:54:52;18.70;76.70
53254;DHT22;39148;53.332;6.922;2022-07-29T08:57:19;18.80;76.70
53254;DHT22;39148;53.332;6.922;2022-07-29T08:59:46;18.70;76.70
53254;DHT22;39148;53.332;6.922;2022-07-29T09:02:21;18.80;76.70
53254;DHT22;39148;53.332;6.922;2022-07-29T09:04:48;18.80;77.00
53254;DHT22;39148;53.332;6.922;2022-07-29T09:07:16;18.80;76.80
53254;DHT22;39148;53.332;6.922;2022-07-29T09:09:42;19.00;76.80
53254;DHT22;39148;53.332;6.922;2022-07-29T09:12:12;18.90;76.80
53254;DHT22;39148;53.332;6.922;2022-07-29T09:14:40;18.90;75.60
53254;DHT22;39148;53.332;6.922;2022-07-29T09:17:07;19.00;76.80
53254;DHT22;39148;53.332;6.922;2022-07-29T09:19:35;19.00;76.80
53254;DHT22;39148;53.332;6.922;2022-07-29T09:22:03;19.00;76.80
53254;DHT22;39148;53.332;6.922;2022-07-29T09:24:41;19.00;76.80
53254;DHT22;39148;53.332;6.922;2022-07-29T09:29:43;19.00;76.90
53254;DHT22;39148;53.332;6.922;2022-07-29T09:32:09;19.00;76.70
53254;DHT22;39148;53.332;6.922;2022-07-29T09:34:36;19.10;76.70
53254;DHT22;39148;53.332;6.922;2022-07-29T09:37:02;19.10;76.60
53254;DHT22;39148;53.332;6.922;2022-07-29T09:39:39;19.10;76.60
53254;DHT22;39148;53.332;6.922;2022-07-29T09:42:11;19.20;75.70
53254;DHT22;39148;53.332;6.922;2022-07-29T09:44:48;19.20;77.10
53254;DHT22;39148;53.332;6.922;2022-07-29T09:47:15;19.20;76.90
53254;DHT22;39148;53.332;6.922;2022-07-29T09:49:56;19.30;76.70
53254;DHT22;39148;53.332;6.922;2022-07-29T09:52:23;19.30;76.90
53254;DHT22;39148;53.332;6.922;2022-07-29T09:54:50;19.30;76.60
53254;DHT22;39148;53.332;6.922;2022-07-29T09:57:24;19.30;76.50
53254;DHT22;39148;53.332;6.922;2022-07-29T10:00:03;19.40;76.80
53254;DHT22;39148;53.332;6.922;2022-07-29T10:02:32;19.30;76.80
53254;DHT22;39148;53.332;6.922;2022-07-29T10:04:59;19.40;76.50
53254;DHT22;39148;53.332;6.922;2022-07-29T10:07:25;19.40;76.50
53254;DHT22;39148;53.332;6.922;2022-07-29T10:09:56;19.50;76.50
53254;DHT22;39148;53.332;6.922;2022-07-29T10:12:23;19.50;76.60
53254;DHT22;39148;53.332;6.922;2022-07-29T10:14:50;19.40;76.90
53254;DHT22;39148;53.332;6.922;2022-07-29T10:17:16;19.50;76.40
53254;DHT22;39148;53.332;6.922;2022-07-29T10:19:42;19.50;76.40
53254;DHT22;39148;53.332;6.922;2022-07-29T10:22:09;19.60;76.20
53254;DHT22;39148;53.332;6.922;2022-07-29T10:24:36;19.50;76.30
53254;DHT22;39148;53.332;6.922;2022-07-29T10:27:06;19.70;76.40
53254;DHT22;39148;53.332;6.922;2022-07-29T10:29:32;19.60;76.40
53254;DHT22;39148;53.332;6.922;2022-07-29T10:35:17;19.70;76.40
53254;DHT22;39148;53.332;6.922;2022-07-29T10:43:47;19.70;75.10
53254;DHT22;39148;53.332;6.922;2022-07-29T10:46:14;19.80;76.20
53254;DHT22;39148;53.332;6.922;2022-07-29T10:52:05;19.80;75.20
53254;DHT22;39148;53.332;6.922;2022-07-29T10:54:44;19.90;75.20
53254;DHT22;39148;53.332;6.922;2022-07-29T10:57:30;19.90;75.00
53254;DHT22;39148;53.332;6.922;2022-07-29T11:04:58;19.80;75.90
53254;DHT22;39148;53.332;6.922;2022-07-29T11:07:25;20.20;76.00
53254;DHT22;39148;53.332;6.922;2022-07-29T11:15:09;20.10;75.80
53254;DHT22;39148;53.332;6.922;2022-07-29T11:31:32;20.30;76.00
53254;DHT22;39148;53.332;6.922;2022-07-29T11:34:30;20.40;74.80
53254;DHT22;39148;53.332;6.922;2022-07-29T11:39:36;20.40;75.80
53254;DHT22;39148;53.332;6.922;2022-07-29T11:47:24;20.40;75.60
53254;DHT22;39148;53.332;6.922;2022-07-29T11:49:50;20.40;75.90
53254;DHT22;39148;53.332;6.922;2022-07-29T11:52:17;20.40;75.40
53254;DHT22;39148;53.332;6.922;2022-07-29T11:54:43;20.30;75.40
53254;DHT22;39148;53.332;6.922;2022-07-29T11:57:09;20.50;75.40
53254;DHT22;39148;53.332;6.922;2022-07-29T11:59:42;20.60;75.30
53254;DHT22;39148;53.332;6.922;2022-07-29T12:02:09;20.60;75.60
53254;DHT22;39148;53.332;6.922;2022-07-29T12:07:15;20.70;75.70
53254;DHT22;39148;53.332;6.922;2022-07-29T12:09:50;20.70;75.60
53254;DHT22;39148;53.332;6.922;2022-07-29T12:12:17;20.80;75.50
53254;DHT22;39148;53.332;6.922;2022-07-29T12:14:43;20.70;75.10
53254;DHT22;39148;53.332;6.922;2022-07-29T12:17:32;20.70;75.20
53254;DHT22;39148;53.332;6.922;2022-07-29T12:20:00;20.80;75.60
53254;DHT22;39148;53.332;6.922;2022-07-29T12:22:31;20.80;75.30
53254;DHT22;39148;53.332;6.922;2022-07-29T12:25:08;20.90;75.30
53254;DHT22;39148;53.332;6.922;2022-07-29T12:27:36;20.90;75.30
53254;DHT22;39148;53.332;6.922;2022-07-29T12:30:10;20.90;75.20
53254;DHT22;39148;53.332;6.922;2022-07-29T12:32:38;20.90;75.00
53254;DHT22;39148;53.332;6.922;2022-07-29T12:35:09;20.90;75.10
53254;DHT22;39148;53.332;6.922;2022-07-29T12:37:37;20.90;75.20
53254;DHT22;39148;53.332;6.922;2022-07-29T12:40:04;21.10;75.10
53254;DHT22;39148;53.332;6.922;2022-07-29T12:42:31;21.10;74.60
53254;DHT22;39148;53.332;6.922;2022-07-29T12:44:57;21.10;75.00
53254;DHT22;39148;53.332;6.922;2022-07-29T12:47:23;21.00;74.80
53254;DHT22;39148;53.332;6.922;2022-07-29T12:49:50;21.00;74.70
53254;DHT22;39148;53.332;6.922;2022-07-29T12:54:54;21.20;73.90
53254;DHT22;39148;53.332;6.922;2022-07-29T12:57:20;21.20;74.80
53254;DHT22;39148;53.332;6.922;2022-07-29T12:59:59;21.30;74.80
53254;DHT22;39148;53.332;6.922;2022-07-29T13:02:25;21.30;75.00
53254;DHT22;39148;53.332;6.922;2022-07-29T13:04:58;21.30;74.60
53254;DHT22;39148;53.332;6.922;2022-07-29T13:07:29;21.30;75.40
53254;DHT22;39148;53.332;6.922;2022-07-29T13:13:03;21.40;73.80
53254;DHT22;39148;53.332;6.922;2022-07-29T13:15:29;21.40;73.70
53254;DHT22;39148;53.332;6.922;2022-07-29T13:17:55;21.50;74.50
53254;DHT22;39148;53.332;6.922;2022-07-29T13:20:24;21.50;74.40
53254;DHT22;39148;53.332;6.922;2022-07-29T13:22:50;21.50;74.60
53254;DHT22;39148;53.332;6.922;2022-07-29T13:25:24;21.50;74.30
53254;DHT22;39148;53.332;6.922;2022-07-29T13:27:49;21.60;74.60
53254;DHT22;39148;53.332;6.922;2022-07-29T13:30:15;21.60;74.30
53254;DHT22;39148;53.332;6.922;2022-07-29T13:32:41;21.70;74.30
53254;DHT22;39148;53.332;6.922;2022-07-29T13:35:08;21.70;74.50
53254;DHT22;39148;53.332;6.922;2022-07-29T13:37:35;21.70;74.20
53254;DHT22;39148;53.332;6.922;2022-07-29T13:40:04;21.80;74.30
53254;DHT22;39148;53.332;6.922;2022-07-29T13:42:31;21.70;73.90
53254;DHT22;39148;53.332;6.922;2022-07-29T13:44:57;21.80;74.20
53254;DHT22;39148;53.332;6.922;2022-07-29T13:47:23;21.80;74.00
53254;DHT22;39148;53.332;6.922;2022-07-29T13:49:50;21.80;74.10
53254;DHT22;39148;53.332;6.922;2022-07-29T13:52:15;21.80;73.80
53254;DHT22;39148;53.332;6.922;2022-07-29T13:54:42;21.90;74.00
53254;DHT22;39148;53.332;6.922;2022-07-29T13:57:09;21.90;74.00
53254;DHT22;39148;53.332;6.922;2022-07-29T13:59:36;21.90;74.00
53254;DHT22;39148;53.332;6.922;2022-07-29T14:02:02;21.90;73.90
53254;DHT22;39148;53.332;6.922;2022-07-29T14:04:27;21.90;73.80
53254;DHT22;39148;53.332;6.922;2022-07-29T14:06:53;22.00;73.80
53254;DHT22;39148;53.332;6.922;2022-07-29T14:09:19;22.00;73.70
53254;DHT22;39148;53.332;6.922;2022-07-29T14:11:45;22.10;73.80
53254;DHT22;39148;53.332;6.922;2022-07-29T14:14:11;21.90;73.70
53254;DHT22;39148;53.332;6.922;2022-07-29T14:16:37;22.10;73.80
53254;DHT22;39148;53.332;6.922;2022-07-29T14:19:03;22.10;73.70
53254;DHT22;39148;53.332;6.922;2022-07-29T14:21:29;22.20;73.70
53254;DHT22;39148;53.332;6.922;2022-07-29T14:23:54;22.10;73.60
53254;DHT22;39148;53.332;6.922;2022-07-29T14:26:21;22.10;73.60
53254;DHT22;39148;53.332;6.922;2022-07-29T14:28:48;22.30;73.70
53254;DHT22;39148;53.332;6.922;2022-07-29T14:31:14;22.20;73.70
53254;DHT22;39148;53.332;6.922;2022-07-29T14:33:40;22.20;73.60
53254;DHT22;39148;53.332;6.922;2022-07-29T14:36:06;22.30;73.70
53254;DHT22;39148;53.332;6.922;2022-07-29T14:38:31;22.10;73.50
53254;DHT22;39148;53.332;6.922;2022-07-29T14:40:57;22.30;73.60
53254;DHT22;39148;53.332;6.922;2022-07-29T14:43:23;22.10;73.60
53254;DHT22;39148;53.332;6.922;2022-07-29T14:45:49;22.20;73.50
53254;DHT22;39148;53.332;6.922;2022-07-29T14:48:14;22.30;73.40
53254;DHT22;39148;53.332;6.922;2022-07-29T14:50:40;22.30;73.40
53254;DHT22;39148;53.332;6.922;2022-07-29T14:53:06;22.30;73.40
53254;DHT22;39148;53.332;6.922;2022-07-29T14:55:31;22.30;73.30
53254;DHT22;39148;53.332;6.922;2022-07-29T14:57:57;22.30;73.40
53254;DHT22;39148;53.332;6.922;2022-07-29T15:00:24;22.30;73.40
53254;DHT22;39148;53.332;6.922;2022-07-29T15:02:50;22.30;73.30
53254;DHT22;39148;53.332;6.922;2022-07-29T15:05:16;22.30;73.30
53254;DHT22;39148;53.332;6.922;2022-07-29T15:07:41;22.30;73.30
53254;DHT22;39148;53.332;6.922;2022-07-29T15:10:07;22.40;73.30
53254;DHT22;39148;53.332;6.922;2022-07-29T15:12:33;21.30;72.80
53254;DHT22;39148;53.332;6.922;2022-07-29T15:14:59;22.40;73.40
53254;DHT22;39148;53.332;6.922;2022-07-29T15:17:25;22.40;73.30
53254;DHT22;39148;53.332;6.922;2022-07-29T15:19:50;22.40;73.40
53254;DHT22;39148;53.332;6.922;2022-07-29T15:22:16;22.30;73.20
53254;DHT22;39148;53.332;6.922;2022-07-29T15:24:42;22.50;73.30
53254;DHT22;39148;53.332;6.922;2022-07-29T15:27:08;22.40;73.40
53254;DHT22;39148;53.332;6.922;2022-07-29T15:29:40;22.50;73.30
53254;DHT22;39148;53.332;6.922;2022-07-29T15:32:06;22.50;73.40
53254;DHT22;39148;53.332;6.922;2022-07-29T15:34:31;22.60;73.40
53254;DHT22;39148;53.332;6.922;2022-07-29T15:36:57;22.40;73.20
53254;DHT22;39148;53.332;6.922;2022-07-29T15:39:23;22.50;73.30
53254;DHT22;39148;53.332;6.922;2022-07-29T15:41:49;22.60;73.40
53254;DHT22;39148;53.332;6.922;2022-07-29T15:44:14;22.50;73.30
53254;DHT22;39148;53.332;6.922;2022-07-29T15:46:40;22.50;73.30
53254;DHT22;39148;53.332;6.922;2022-07-29T15:49:24;22.50;72.50
53254;DHT22;39148;53.332;6.922;2022-07-29T15:51:59;22.50;73.40
53254;DHT22;39148;53.332;6.922;2022-07-29T15:54:26;22.50;72.20
53254;DHT22;39148;53.332;6.922;2022-07-29T15:56:52;22.50;73.50
53254;DHT22;39148;53.332;6.922;2022-07-29T15:59:18;22.60;73.40
53254;DHT22;39148;53.332;6.922;2022-07-29T16:01:44;22.50;73.50
53254;DHT22;39148;53.332;6.922;2022-07-29T16:04:10;22.60;73.40
53254;DHT22;39148;53.332;6.922;2022-07-29T16:06:36;22.70;73.50
53254;DHT22;39148;53.332;6.922;2022-07-29T16:09:02;22.60;73.40
53254;DHT22;39148;53.332;6.922;2022-07-29T16:11:27;22.50;73.40
53254;DHT22;39148;53.332;6.922;2022-07-29T16:13:53;22.50;73.40
53254;DHT22;39148;53.332;6.922;2022-07-29T16:16:19;22.60;73.40
53254;DHT22;39148;53.332;6.922;2022-07-29T16:18:45;22.60;73.40
53254;DHT22;39148;53.332;6.922;2022-07-29T16:21:12;22.60;73.50
53254;DHT22;39148;53.332;6.922;2022-07-29T16:23:38;21.00;72.80
53254;DHT22;39148;53.332;6.922;2022-07-29T16:26:04;22.60;73.60
53254;DHT22;39148;53.332;6.922;2022-07-29T16:28:30;22.50;73.40
53254;DHT22;39148;53.332;6.922;2022-07-29T16:30:56;22.60;73.40
53254;DHT22;39148;53.332;6.922;2022-07-29T16:33:22;22.60;73.40
53254;DHT22;39148;53.332;6.922;2022-07-29T16:35:49;22.60;73.40
53254;DHT22;39148;53.332;6.922;2022-07-29T16:38:15;22.60;73.50
53254;DHT22;39148;53.332;6.922;2022-07-29T16:40:41;22.50;73.40
53254;DHT22;39148;53.332;6.922;2022-07-29T16:43:07;22.60;73.40